sensor_id;sensor_type;location;lat;lon;timestamp;pressure;altitude;pressure_sealevel;temperature;humidity
80927;BME280;70385;44.538;18.532;2023-11-19T00:00:23;100232.00;;;-2.27;100.00
80927;BME280;70385;44.538;18.532;2023-11-19T00:02:52;100244.94;;;-2.21;100.00
80927;BME280;70385;44.538;18.532;2023-11-19T00:05:21;100250.59;;;-2.35;100.00
80927;BME280;70385;44.538;18.532;2023-11-19T00:07:47;100238.44;;;-2.46;100.00
80927;BME280;70385;44.538;18.532;2023-11-19T00:10:15;100234.16;;;-2.47;100.00
80927;BME280;70385;44.538;18.532;2023-11-19T00:12:48;100236.09;;;-2.35;100.00
80927;BME280;70385;44.538;18.532;2023-11-19T00:15:17;100233.69;;;-2.27;100.00
80927;BME280;70385;44.538;18.532;2023-11-19T00:17:50;100241.41;;;-2.26;100.00
80927;BME280;70385;44.538;18.532;2023-11-19T00:20:20;100226.59;;;-2.39;100.00
80927;BME280;70385;44.538;18.532;2023-11-19T00:22:51;100220.41;;;-2.50;100.00
80927;BME280;70385;44.538;18.532;2023-11-19T00:25:20;100211.91;;;-2.48;100.00
80927;BME280;70385;44.538;18.532;2023-11-19T00:27:50;100205.03;;;-2.50;100.00
80927;BME280;70385;44.538;18.532;2023-11-19T00:30:19;100199.03;;;-2.51;100.00
80927;BME280;70385;44.538;18.532;2023-11-19T00:32:48;100204.94;;;-2.53;100.00
80927;BME280;70385;44.538;18.532;2023-11-19T00:35:14;100208.41;;;-2.51;100.00
80927;BME280;70385;44.538;18.532;2023-11-19T00:37:41;100228.09;;;-2.50;100.00
80927;BME280;70385;44.538;18.532;2023-11-19T00:40:09;100219.25;;;-2.64;100.00
80927;BME280;70385;44.538;18.532;2023-11-19T00:42:39;100213.84;;;-2.75;100.00
80927;BME280;70385;44.538;18.532;2023-11-19T00:45:07;100213.84;;;-2.75;100.00
80927;BME280;70385;44.538;18.532;2023-11-19T00:47:35;100216.53;;;-2.70;100.00
80927;BME280;70385;44.538;18.532;2023-11-19T00:50:06;100200.91;;;-2.83;100.00
80927;BME280;70385;44.538;18.532;2023-11-19T00:52:37;100199.94;;;-2.88;100.00
80927;BME280;70385;44.538;18.532;2023-11-19T00:55:07;100195.72;;;-2.86;100.00
80927;BME280;70385;44.538;18.532;2023-11-19T00:57:40;100201.69;;;-2.85;100.00
80927;BME280;70385;44.538;18.532;2023-11-19T01:00:08;100202.59;;;-2.83;100.00
80927;BME280;70385;44.538;18.532;2023-11-19T01:02:45;100208.56;;;-2.84;100.00
80927;BME280;70385;44.538;18.532;2023-11-19T01:05:16;100228.25;;;-2.82;100.00
80927;BME280;70385;44.538;18.532;2023-11-19T01:07:42;100221.38;;;-2.83;100.00
80927;BME280;70385;44.538;18.532;2023-11-19T01:10:12;100225.47;;;-2.89;100.00
80927;BME280;70385;44.538;18.532;2023-11-19T01:12:38;100214.19;;;-2.99;100.00
80927;BME280;70385;44.538;18.532;2023-11-19T01:15:05;100210.00;;;-2.95;100.00
80927;BME280;70385;44.538;18.532;2023-11-19T01:17:34;100221.16;;;-2.92;100.00
80927;BME280;70385;44.538;18.532;2023-11-19T01:20:02;100216.72;;;-3.00;100.00
80927;BME280;70385;44.538;18.532;2023-11-19T01:22:31;100215.91;;;-2.98;100.00
80927;BME280;70385;44.538;18.532;2023-11-19T01:24:59;100198.53;;;-3.11;100.00
80927;BME280;70385;44.538;18.532;2023-11-19T01:27:25;100207.25;;;-3.03;100.00
80927;BME280;70385;44.538;18.532;2023-11-19T01:29:54;100211.34;;;-3.10;100.00
80927;BME280;70385;44.538;18.532;2023-11-19T01:32:21;100209.75;;;-3.06;100.00
80927;BME280;70385;44.538;18.532;2023-11-19T01:34:55;100209.41;;;-3.20;100.00
80927;BME280;70385;44.538;18.532;2023-11-19T01:37:21;100215.34;;;-3.22;100.00
80927;BME280;70385;44.538;18.532;2023-11-19T01:39:47;100207.34;;;-3.34;100.00
80927;BME280;70385;44.538;18.532;2023-11-19T01:42:13;100192.97;;;-3.29;100.00
80927;BME280;70385;44.538;18.532;2023-11-19T01:44:41;100194.28;;;-3.09;100.00
80927;BME280;70385;44.538;18.532;2023-11-19T01:47:32;100198.53;;;-3.11;100.00
80927;BME280;70385;44.538;18.532;2023-11-19T01:50:04;100198.38;;;-3.17;100.00
80927;BME280;70385;44.538;18.532;2023-11-19T01:52:33;100200.28;;;-3.09;100.00
80927;BME280;70385;44.538;18.532;2023-11-19T01:55:07;100191.47;;;-3.21;100.00
80927;BME280;70385;44.538;18.532;2023-11-19T01:57:34;100199.97;;;-3.22;100.00
80927;BME280;70385;44.538;18.532;2023-11-19T02:00:06;100203.44;;;-3.20;100.00
80927;BME280;70385;44.538;18.532;2023-11-19T02:02:41;100192.13;;;-3.28;100.00
80927;BME280;70385;44.538;18.532;2023-11-19T02:05:07;100197.38;;;-3.24;100.00
80927;BME280;70385;44.538;18.532;2023-11-19T02:07:33;100193.97;;;-3.24;100.00
80927;BME280;70385;44.538;18.532;2023-11-19T02:09:59;100193.16;;;-3.22;100.00
80927;BME280;70385;44.538;18.532;2023-11-19T02:12:33;100183.69;;;-3.26;100.00
80927;BME280;70385;44.538;18.532;2023-11-19T02:15:00;100170.75;;;-3.30;100.00
80927;BME280;70385;44.538;18.532;2023-11-19T02:17:30;100177.34;;;-3.42;100.00
80927;BME280;70385;44.538;18.532;2023-11-19T02:20:00;100174.84;;;-3.39;100.00
80927;BME280;70385;44.538;18.532;2023-11-19T02:22:29;100164.81;;;-3.29;100.00
80927;BME280;70385;44.538;18.532;2023-11-19T02:25:04;100155.72;;;-3.18;100.00
80927;BME280;70385;44.538;18.532;2023-11-19T02:30:16;100149.22;;;-3.04;100.00
80927;BME280;70385;44.538;18.532;2023-11-19T02:32:42;100139.97;;;-2.97;100.00
80927;BME280;70385;44.538;18.532;2023-11-19T02:35:09;100147.72;;;-2.93;100.00
80927;BME280;70385;44.538;18.532;2023-11-19T02:37:38;100157.69;;;-3.07;100.00
80927;BME280;70385;44.538;18.532;2023-11-19T02:40:06;100149.59;;;-3.25;100.00
80927;BME280;70385;44.538;18.532;2023-11-19T02:42:35;100146.34;;;-3.18;100.00
80927;BME280;70385;44.538;18.532;2023-11-19T02:45:04;100151.16;;;-3.30;100.00
80927;BME280;70385;44.538;18.532;2023-11-19T02:47:32;100143.75;;;-3.19;100.00
80927;BME280;70385;44.538;18.532;2023-11-19T02:50:02;100142.50;;;-2.99;100.00
80927;BME280;70385;44.538;18.532;2023-11-19T02:52:28;100131.88;;;-3.16;100.00
80927;BME280;70385;44.538;18.532;2023-11-19T02:54:57;100129.94;;;-3.26;100.00
80927;BME280;70385;44.538;18.532;2023-11-19T02:57:24;100107.44;;;-3.41;100.00
80927;BME280;70385;44.538;18.532;2023-11-19T02:59:50;100104.16;;;-3.33;100.00
80927;BME280;70385;44.538;18.532;2023-11-19T03:02:16;100103.97;;;-3.43;100.00
80927;BME280;70385;44.538;18.532;2023-11-19T03:04:43;100111.44;;;-3.50;100.00
80927;BME280;70385;44.538;18.532;2023-11-19T03:07:15;100112.25;;;-3.53;100.00
80927;BME280;70385;44.538;18.532;2023-11-19T03:09:43;100102.00;;;-3.53;100.00
80927;BME280;70385;44.538;18.532;2023-11-19T03:12:16;100100.59;;;-3.42;100.00
80927;BME280;70385;44.538;18.532;2023-11-19T03:14:44;100111.75;;;-3.38;100.00
80927;BME280;70385;44.538;18.532;2023-11-19T03:17:15;100103.81;;;-3.49;100.00
80927;BME280;70385;44.538;18.532;2023-11-19T03:19:43;100096.94;;;-3.51;100.00
80927;BME280;70385;44.538;18.532;2023-11-19T03:22:09;100092.88;;;-3.43;100.00
80927;BME280;70385;44.538;18.532;2023-11-19T03:24:41;100088.75;;;-3.37;100.00
80927;BME280;70385;44.538;18.532;2023-11-19T03:27:07;100082.56;;;-3.46;100.00
80927;BME280;70385;44.538;18.532;2023-11-19T03:29:35;100083.00;;;-3.64;100.00
80927;BME280;70385;44.538;18.532;2023-11-19T03:32:01;100094.16;;;-3.60;100.00
80927;BME280;70385;44.538;18.532;2023-11-19T03:34:28;100097.53;;;-3.63;100.00
80927;BME280;70385;44.538;18.532;2023-11-19T03:36:54;100099.09;;;-3.68;100.00
80927;BME280;70385;44.538;18.532;2023-11-19T03:39:21;100091.75;;;-3.54;100.00
80927;BME280;70385;44.538;18.532;2023-11-19T03:41:52;100095.03;;;-3.60;100.00
80927;BME280;70385;44.538;18.532;2023-11-19T03:44:18;100088.13;;;-3.64;100.00
80927;BME280;70385;44.538;18.532;2023-11-19T03:46:45;100086.47;;;-3.62;100.00
80927;BME280;70385;44.538;18.532;2023-11-19T03:49:14;100088.47;;;-3.49;100.00
80927;BME280;70385;44.538;18.532;2023-11-19T03:51:43;100076.50;;;-3.50;100.00
80927;BME280;70385;44.538;18.532;2023-11-19T03:54:16;100064.53;;;-3.51;100.00
80927;BME280;70385;44.538;18.532;2023-11-19T03:56:42;100075.13;;;-3.72;100.00
80927;BME280;70385;44.538;18.532;2023-11-19T03:59:08;100074.28;;;-3.72;100.00
80927;BME280;70385;44.538;18.532;2023-11-19T04:01:37;100085.44;;;-3.69;100.00
80927;BME280;70385;44.538;18.532;2023-11-19T04:04:03;100076.91;;;-3.69;100.00
80927;BME280;70385;44.538;18.532;2023-11-19T04:06:29;100056.34;;;-3.74;100.00
80927;BME280;70385;44.538;18.532;2023-11-19T04:09:17;100036.75;;;-3.73;100.00
80927;BME280;70385;44.538;18.532;2023-11-19T04:11:43;100028.28;;;-3.71;100.00
80927;BME280;70385;44.538;18.532;2023-11-19T04:14:14;100021.75;;;-3.58;100.00
80927;BME280;70385;44.538;18.532;2023-11-19T04:16:50;100023.94;;;-3.75;100.00
80927;BME280;70385;44.538;18.532;2023-11-19T04:19:18;100038.03;;;-3.54;100.00
80927;BME280;70385;44.538;18.532;2023-11-19T04:21:45;100051.06;;;-3.44;100.00
80927;BME280;70385;44.538;18.532;2023-11-19T04:24:15;100055.91;;;-3.56;100.00
80927;BME280;70385;44.538;18.532;2023-11-19T04:26:45;100041.19;;;-3.66;100.00
80927;BME280;70385;44.538;18.532;2023-11-19T04:29:30;100045.94;;;-3.81;100.00
80927;BME280;70385;44.538;18.532;2023-11-19T04:31:57;100034.88;;;-3.80;100.00
80927;BME280;70385;44.538;18.532;2023-11-19T04:34:26;100038.31;;;-3.80;100.00
80927;BME280;70385;44.538;18.532;2023-11-19T04:36:52;100041.72;;;-3.79;100.00
80927;BME280;70385;44.538;18.532;2023-11-19T04:39:18;100034.66;;;-3.89;100.00
80927;BME280;70385;44.538;18.532;2023-11-19T04:41:51;100040.63;;;-3.89;100.00
80927;BME280;70385;44.538;18.532;2023-11-19T04:44:21;100045.78;;;-3.87;100.00
80927;BME280;70385;44.538;18.532;2023-11-19T04:46:47;100030.16;;;-4.00;100.00
80927;BME280;70385;44.538;18.532;2023-11-19T04:49:14;100034.38;;;-4.02;100.00
80927;BME280;70385;44.538;18.532;2023-11-19T04:51:45;100030.13;;;-4.01;100.00
80927;BME280;70385;44.538;18.532;2023-11-19T04:54:14;100017.19;;;-4.07;100.00
80927;BME280;70385;44.538;18.532;2023-11-19T04:56:40;100010.31;;;-4.10;100.00
80927;BME280;70385;44.538;18.532;2023-11-19T04:59:10;100013.84;;;-4.05;100.00
80927;BME280;70385;44.538;18.532;2023-11-19T05:01:36;100010.38;;;-4.07;100.00
80927;BME280;70385;44.538;18.532;2023-11-19T05:04:06;99993.91;;;-4.19;100.00
80927;BME280;70385;44.538;18.532;2023-11-19T05:06:33;99997.59;;;-4.07;100.00
80927;BME280;70385;44.538;18.532;2023-11-19T05:08:59;99979.56;;;-4.13;100.00
80927;BME280;70385;44.538;18.532;2023-11-19T05:11:33;99996.69;;;-4.09;100.00
80927;BME280;70385;44.538;18.532;2023-11-19T05:14:04;99987.22;;;-4.13;100.00
80927;BME280;70385;44.538;18.532;2023-11-19T05:16:31;99976.16;;;-4.13;100.00
80927;BME280;70385;44.538;18.532;2023-11-19T05:18:57;99987.19;;;-4.14;100.00
80927;BME280;70385;44.538;18.532;2023-11-19T05:21:25;99973.50;;;-4.18;100.00
80927;BME280;70385;44.538;18.532;2023-11-19T05:23:53;99965.91;;;-4.15;100.00
80927;BME280;70385;44.538;18.532;2023-11-19T05:26:23;99971.09;;;-4.10;100.00
80927;BME280;70385;44.538;18.532;2023-11-19T05:28:51;99976.13;;;-4.15;100.00
80927;BME280;70385;44.538;18.532;2023-11-19T05:31:17;99974.38;;;-4.16;100.00
80927;BME280;70385;44.538;18.532;2023-11-19T05:33:44;99973.28;;;-3.89;100.00
80927;BME280;70385;44.538;18.532;2023-11-19T05:36:12;99988.50;;;-3.95;100.00
80927;BME280;70385;44.538;18.532;2023-11-19T05:38:44;99998.03;;;-3.88;100.00
80927;BME280;70385;44.538;18.532;2023-11-19T05:41:11;99992.22;;;-3.83;100.00
80927;BME280;70385;44.538;18.532;2023-11-19T05:43:37;99993.16;;;-3.79;100.00
80927;BME280;70385;44.538;18.532;2023-11-19T05:46:08;99995.34;;;-3.57;100.00
80927;BME280;70385;44.538;18.532;2023-11-19T05:48:34;100001.41;;;-3.52;100.00
80927;BME280;70385;44.538;18.532;2023-11-19T05:51:01;100000.91;;;-3.36;100.00
80927;BME280;70385;44.538;18.532;2023-11-19T05:53:28;99996.84;;;-3.27;100.00
80927;BME280;70385;44.538;18.532;2023-11-19T05:55:55;100005.47;;;-3.22;100.00
80927;BME280;70385;44.538;18.532;2023-11-19T05:58:26;100005.66;;;-3.13;100.00
80927;BME280;70385;44.538;18.532;2023-11-19T06:00:57;99999.91;;;-3.03;100.00
80927;BME280;70385;44.538;18.532;2023-11-19T06:03:23;99996.69;;;-2.91;100.00
80927;BME280;70385;44.538;18.532;2023-11-19T06:05:52;100003.00;;;-2.74;100.00
80927;BME280;70385;44.538;18.532;2023-11-19T06:08:19;99993.69;;;-2.70;100.00
80927;BME280;70385;44.538;18.532;2023-11-19T06:10:46;100008.28;;;-2.66;100.00
80927;BME280;70385;44.538;18.532;2023-11-19T06:13:22;99981.91;;;-2.61;100.00
80927;BME280;70385;44.538;18.532;2023-11-19T06:15:50;99990.69;;;-2.48;100.00
80927;BME280;70385;44.538;18.532;2023-11-19T06:18:16;99989.91;;;-2.44;100.00
80927;BME280;70385;44.538;18.532;2023-11-19T06:20:46;99996.03;;;-2.34;100.00
80927;BME280;70385;44.538;18.532;2023-11-19T06:23:15;99984.22;;;-2.26;100.00
80927;BME280;70385;44.538;18.532;2023-11-19T06:25:44;99986.03;;;-2.19;100.00
80927;BME280;70385;44.538;18.532;2023-11-19T06:28:17;99987.16;;;-2.03;100.00
80927;BME280;70385;44.538;18.532;2023-11-19T06:30:51;99982.97;;;-1.98;100.00
80927;BME280;70385;44.538;18.532;2023-11-19T06:33:21;99987.44;;;-1.85;100.00
80927;BME280;70385;44.538;18.532;2023-11-19T06:36:03;99994.34;;;-1.81;100.00
80927;BME280;70385;44.538;18.532;2023-11-19T06:38:37;100005.66;;;-1.68;100.00
80927;BME280;70385;44.538;18.532;2023-11-19T06:41:08;99994.66;;;-1.60;100.00
80927;BME280;70385;44.538;18.532;2023-11-19T06:43:37;99991.38;;;-1.51;100.00
80927;BME280;70385;44.538;18.532;2023-11-19T06:46:04;99983.72;;;-1.46;100.00
80927;BME280;70385;44.538;18.532;2023-11-19T06:48:33;99985.47;;;-1.42;100.00
80927;BME280;70385;44.538;18.532;2023-11-19T06:51:10;99995.97;;;-1.26;100.00
80927;BME280;70385;44.538;18.532;2023-11-19T06:53:39;99989.19;;;-1.20;100.00
80927;BME280;70385;44.538;18.532;2023-11-19T06:56:24;99984.78;;;-1.31;100.00
80927;BME280;70385;44.538;18.532;2023-11-19T06:58:52;99997.66;;;-1.29;100.00
80927;BME280;70385;44.538;18.532;2023-11-19T07:01:19;99981.38;;;-1.30;100.00
80927;BME280;70385;44.538;18.532;2023-11-19T07:03:47;99989.16;;;-1.24;100.00
80927;BME280;70385;44.538;18.532;2023-11-19T07:06:15;99987.44;;;-1.25;100.00
80927;BME280;70385;44.538;18.532;2023-11-19T07:08:45;99998.78;;;-1.07;100.00
80927;BME280;70385;44.538;18.532;2023-11-19T07:11:14;99994.72;;;-0.87;100.00
80927;BME280;70385;44.538;18.532;2023-11-19T07:13:44;99993.03;;;-0.85;100.00
80927;BME280;70385;44.538;18.532;2023-11-19T07:16:14;100004.13;;;-0.90;100.00
80927;BME280;70385;44.538;18.532;2023-11-19T07:18:58;100004.81;;;-1.02;100.00
80927;BME280;70385;44.538;18.532;2023-11-19T07:21:26;100015.31;;;-0.85;100.00
80927;BME280;70385;44.538;18.532;2023-11-19T07:23:57;100007.56;;;-0.87;100.00
80927;BME280;70385;44.538;18.532;2023-11-19T07:26:24;99999.00;;;-0.87;100.00
80927;BME280;70385;44.538;18.532;2023-11-19T07:28:58;99997.31;;;-0.85;100.00
80927;BME280;70385;44.538;18.532;2023-11-19T07:31:26;99995.09;;;-0.55;100.00
80927;BME280;70385;44.538;18.532;2023-11-19T07:33:53;99991.53;;;-0.68;100.00
80927;BME280;70385;44.538;18.532;2023-11-19T07:36:19;99989.88;;;-0.59;100.00
80927;BME280;70385;44.538;18.532;2023-11-19T07:38:48;99984.03;;;-0.45;100.00
80927;BME280;70385;44.538;18.532;2023-11-19T07:41:15;99976.44;;;-0.33;100.00
80927;BME280;70385;44.538;18.532;2023-11-19T07:43:47;99976.50;;;-0.25;100.00
80927;BME280;70385;44.538;18.532;2023-11-19T07:46:18;99980.22;;;0.11;100.00
80927;BME280;70385;44.538;18.532;2023-11-19T07:48:47;99976.03;;;0.22;100.00
80927;BME280;70385;44.538;18.532;2023-11-19T07:51:16;99970.09;;;0.35;100.00
80927;BME280;70385;44.538;18.532;2023-11-19T07:53:45;99964.94;;;0.37;100.00
80927;BME280;70385;44.538;18.532;2023-11-19T07:56:15;99945.31;;;0.55;100.00
80927;BME280;70385;44.538;18.532;2023-11-19T07:58:46;99942.81;;;0.71;100.00
80927;BME280;70385;44.538;18.532;2023-11-19T08:01:25;99929.13;;;0.88;100.00
80927;BME280;70385;44.538;18.532;2023-11-19T08:03:52;99936.94;;;1.13;100.00
80927;BME280;70385;44.538;18.532;2023-11-19T08:06:22;99927.47;;;1.13;100.00
80927;BME280;70385;44.538;18.532;2023-11-19T08:09:02;99942.94;;;1.01;100.00
80927;BME280;70385;44.538;18.532;2023-11-19T08:11:30;99926.66;;;1.22;100.00
80927;BME280;70385;44.538;18.532;2023-11-19T08:13:58;99936.13;;;1.32;100.00
80927;BME280;70385;44.538;18.532;2023-11-19T08:16:24;99943.00;;;1.33;100.00
80927;BME280;70385;44.538;18.532;2023-11-19T08:18:50;99935.28;;;1.45;100.00
80927;BME280;70385;44.538;18.532;2023-11-19T08:21:16;99921.53;;;1.71;100.00
80927;BME280;70385;44.538;18.532;2023-11-19T08:23:46;99915.53;;;1.86;100.00
80927;BME280;70385;44.538;18.532;2023-11-19T08:26:12;99899.13;;;2.06;100.00
80927;BME280;70385;44.538;18.532;2023-11-19T08:28:49;99911.16;;;2.23;100.00
80927;BME280;70385;44.538;18.532;2023-11-19T08:31:16;99884.41;;;2.47;100.00
80927;BME280;70385;44.538;18.532;2023-11-19T08:33:42;99883.38;;;2.86;100.00
80927;BME280;70385;44.538;18.532;2023-11-19T08:36:15;99882.50;;;2.90;100.00
80927;BME280;70385;44.538;18.532;2023-11-19T08:38:42;99871.41;;;2.71;100.00
80927;BME280;70385;44.538;18.532;2023-11-19T08:41:08;99886.00;;;2.80;100.00
80927;BME280;70385;44.538;18.532;2023-11-19T08:43:39;99899.72;;;2.91;100.00
80927;BME280;70385;44.538;18.532;2023-11-19T08:46:11;99898.94;;;2.77;100.00
80927;BME280;70385;44.538;18.532;2023-11-19T08:48:38;99903.19;;;2.90;100.00
80927;BME280;70385;44.538;18.532;2023-11-19T08:51:07;99898.00;;;2.87;100.00
80927;BME280;70385;44.538;18.532;2023-11-19T08:53:34;99915.00;;;3.32;100.00
80927;BME280;70385;44.538;18.532;2023-11-19T08:56:01;99906.41;;;3.30;100.00
80927;BME280;70385;44.538;18.532;2023-11-19T08:58:29;99912.38;;;3.37;100.00
80927;BME280;70385;44.538;18.532;2023-11-19T09:00:59;99898.56;;;3.38;100.00
80927;BME280;70385;44.538;18.532;2023-11-19T09:03:28;99899.38;;;3.47;100.00
80927;BME280;70385;44.538;18.532;2023-11-19T09:05:57;99883.84;;;3.49;100.00
80927;BME280;70385;44.538;18.532;2023-11-19T09:08:23;99877.13;;;3.20;100.00
80927;BME280;70385;44.538;18.532;2023-11-19T09:10:49;99878.03;;;3.16;100.00
80927;BME280;70385;44.538;18.532;2023-11-19T09:13:18;99875.44;;;3.16;100.00
80927;BME280;70385;44.538;18.532;2023-11-19T09:15:47;99870.91;;;3.46;100.00
80927;BME280;70385;44.538;18.532;2023-11-19T09:18:17;99856.38;;;3.31;100.00
80927;BME280;70385;44.538;18.532;2023-11-19T09:20:48;99872.69;;;3.41;100.00
80927;BME280;70385;44.538;18.532;2023-11-19T09:23:15;99862.38;;;3.34;100.00
80927;BME280;70385;44.538;18.532;2023-11-19T09:25:47;99867.66;;;3.21;100.00
80927;BME280;70385;44.538;18.532;2023-11-19T09:28:16;99869.06;;;3.60;100.00
80927;BME280;70385;44.538;18.532;2023-11-19T09:30:45;99874.94;;;3.79;100.00
80927;BME280;70385;44.538;18.532;2023-11-19T09:33:14;99875.59;;;4.01;99.81
80927;BME280;70385;44.538;18.532;2023-11-19T09:35:42;99856.31;;;4.29;98.67
80927;BME280;70385;44.538;18.532;2023-11-19T09:38:10;99857.44;;;4.76;94.80
80927;BME280;70385;44.538;18.532;2023-11-19T09:40:40;99853.13;;;4.76;92.68
80927;BME280;70385;44.538;18.532;2023-11-19T09:43:15;99850.81;;;5.16;92.53
80927;BME280;70385;44.538;18.532;2023-11-19T09:45:58;99839.66;;;5.11;92.67
80927;BME280;70385;44.538;18.532;2023-11-19T09:48:48;99824.50;;;5.41;91.29
80927;BME280;70385;44.538;18.532;2023-11-19T09:51:21;99821.59;;;5.58;90.15
80927;BME280;70385;44.538;18.532;2023-11-19T09:53:52;99804.03;;;5.73;89.78
80927;BME280;70385;44.538;18.532;2023-11-19T09:56:20;99799.84;;;5.66;85.92
80927;BME280;70385;44.538;18.532;2023-11-19T09:58:51;99805.75;;;5.74;87.51
80927;BME280;70385;44.538;18.532;2023-11-19T10:01:17;99805.41;;;5.94;86.31
80927;BME280;70385;44.538;18.532;2023-11-19T10:03:44;99786.09;;;6.09;85.25
80927;BME280;70385;44.538;18.532;2023-11-19T10:06:17;99785.88;;;5.72;84.93
80927;BME280;70385;44.538;18.532;2023-11-19T10:08:45;99787.91;;;6.04;85.45
80927;BME280;70385;44.538;18.532;2023-11-19T10:11:13;99778.13;;;6.17;84.12
80927;BME280;70385;44.538;18.532;2023-11-19T10:13:40;99769.03;;;6.39;83.98
80927;BME280;70385;44.538;18.532;2023-11-19T10:16:12;99755.63;;;6.17;84.70
80927;BME280;70385;44.538;18.532;2023-11-19T10:18:47;99750.50;;;6.13;84.53
80927;BME280;70385;44.538;18.532;2023-11-19T10:21:18;99751.09;;;6.25;84.36
80927;BME280;70385;44.538;18.532;2023-11-19T10:26:15;99733.97;;;6.55;83.44
80927;BME280;70385;44.538;18.532;2023-11-19T10:28:41;99733.78;;;7.02;80.32
80927;BME280;70385;44.538;18.532;2023-11-19T10:31:16;99736.25;;;7.06;77.61
80927;BME280;70385;44.538;18.532;2023-11-19T10:33:45;99717.84;;;7.48;75.53
80927;BME280;70385;44.538;18.532;2023-11-19T10:36:12;99696.44;;;7.69;73.78
80927;BME280;70385;44.538;18.532;2023-11-19T10:38:39;99684.63;;;7.87;71.97
80927;BME280;70385;44.538;18.532;2023-11-19T10:41:14;99660.91;;;7.98;70.70
80927;BME280;70385;44.538;18.532;2023-11-19T10:43:54;99648.06;;;8.19;70.93
80927;BME280;70385;44.538;18.532;2023-11-19T10:46:46;99639.28;;;7.94;67.86
80927;BME280;70385;44.538;18.532;2023-11-19T10:49:18;99625.25;;;7.98;67.32
80927;BME280;70385;44.538;18.532;2023-11-19T10:51:45;99604.41;;;7.98;66.48
80927;BME280;70385;44.538;18.532;2023-11-19T10:54:20;99564.22;;;8.05;66.24
80927;BME280;70385;44.538;18.532;2023-11-19T10:56:55;99568.50;;;8.08;67.87
80927;BME280;70385;44.538;18.532;2023-11-19T10:59:32;99575.38;;;8.10;67.75
80927;BME280;70385;44.538;18.532;2023-11-19T11:02:03;99584.09;;;7.81;68.72
80927;BME280;70385;44.538;18.532;2023-11-19T11:04:40;99604.31;;;7.73;70.60
80927;BME280;70385;44.538;18.532;2023-11-19T11:07:10;99612.38;;;7.64;70.33
80927;BME280;70385;44.538;18.532;2023-11-19T11:09:36;99618.81;;;7.52;68.78
80927;BME280;70385;44.538;18.532;2023-11-19T11:12:06;99628.41;;;7.18;70.98
80927;BME280;70385;44.538;18.532;2023-11-19T11:14:34;99615.31;;;7.52;69.38
80927;BME280;70385;44.538;18.532;2023-11-19T11:17:04;99630.72;;;7.89;67.86
80927;BME280;70385;44.538;18.532;2023-11-19T11:19:36;99622.38;;;8.07;66.49
80927;BME280;70385;44.538;18.532;2023-11-19T11:22:05;99582.44;;;8.07;66.55
80927;BME280;70385;44.538;18.532;2023-11-19T11:25:11;99555.44;;;8.37;66.56
80927;BME280;70385;44.538;18.532;2023-11-19T11:28:05;99575.13;;;8.18;66.30
80927;BME280;70385;44.538;18.532;2023-11-19T11:30:54;99558.78;;;8.41;65.89
80927;BME280;70385;44.538;18.532;2023-11-19T11:36:23;99553.09;;;8.81;63.96
80927;BME280;70385;44.538;18.532;2023-11-19T11:38:50;99553.31;;;9.23;62.93
80927;BME280;70385;44.538;18.532;2023-11-19T11:41:20;99550.78;;;9.22;59.88
80927;BME280;70385;44.538;18.532;2023-11-19T11:43:50;99545.16;;;9.56;58.24
80927;BME280;70385;44.538;18.532;2023-11-19T11:49:08;99535.19;;;10.11;53.89
80927;BME280;70385;44.538;18.532;2023-11-19T11:57:09;99530.03;;;9.87;56.59
80927;BME280;70385;44.538;18.532;2023-11-19T11:59:51;99534.09;;;9.94;54.03
80927;BME280;70385;44.538;18.532;2023-11-19T12:02:24;99531.13;;;10.03;53.54
80927;BME280;70385;44.538;18.532;2023-11-19T12:04:52;99528.91;;;10.15;53.24
80927;BME280;70385;44.538;18.532;2023-11-19T12:07:24;99516.50;;;10.20;53.25
80927;BME280;70385;44.538;18.532;2023-11-19T12:10:29;99519.75;;;10.69;54.24
80927;BME280;70385;44.538;18.532;2023-11-19T12:13:00;99508.91;;;10.97;53.74
80927;BME280;70385;44.538;18.532;2023-11-19T12:15:27;99501.84;;;10.99;54.09
80927;BME280;70385;44.538;18.532;2023-11-19T12:18:00;99495.06;;;11.13;54.53
80927;BME280;70385;44.538;18.532;2023-11-19T12:20:34;99489.88;;;11.51;53.99
80927;BME280;70385;44.538;18.532;2023-11-19T12:23:04;99494.41;;;11.29;53.77
80927;BME280;70385;44.538;18.532;2023-11-19T12:25:37;99489.50;;;11.21;54.52
80927;BME280;70385;44.538;18.532;2023-11-19T12:28:03;99480.03;;;10.98;55.83
80927;BME280;70385;44.538;18.532;2023-11-19T12:30:39;99480.19;;;10.95;56.31
80927;BME280;70385;44.538;18.532;2023-11-19T12:33:11;99473.09;;;10.97;56.88
80927;BME280;70385;44.538;18.532;2023-11-19T12:35:46;99475.97;;;11.11;56.04
80927;BME280;70385;44.538;18.532;2023-11-19T12:40:47;99468.56;;;11.21;56.11
80927;BME280;70385;44.538;18.532;2023-11-19T12:43:30;99460.59;;;10.85;57.25
80927;BME280;70385;44.538;18.532;2023-11-19T12:45:57;99463.59;;;10.76;58.64
80927;BME280;70385;44.538;18.532;2023-11-19T12:48:24;99455.31;;;10.66;58.16
80927;BME280;70385;44.538;18.532;2023-11-19T12:50:54;99446.78;;;10.41;58.64
80927;BME280;70385;44.538;18.532;2023-11-19T12:53:26;99450.28;;;10.41;58.99
80927;BME280;70385;44.538;18.532;2023-11-19T12:55:59;99464.25;;;10.40;58.69
80927;BME280;70385;44.538;18.532;2023-11-19T12:58:35;99464.31;;;10.39;57.93
80927;BME280;70385;44.538;18.532;2023-11-19T13:01:06;99459.09;;;10.39;57.75
80927;BME280;70385;44.538;18.532;2023-11-19T13:03:37;99459.88;;;10.41;58.40
80927;BME280;70385;44.538;18.532;2023-11-19T13:06:09;99467.69;;;10.42;57.72
80927;BME280;70385;44.538;18.532;2023-11-19T13:08:45;99441.53;;;10.42;55.26
80927;BME280;70385;44.538;18.532;2023-11-19T13:11:35;99428.09;;;10.29;55.96
80927;BME280;70385;44.538;18.532;2023-11-19T13:14:07;99429.09;;;10.05;56.66